Flight Track Log - Related Links

Times and Time Zones

All times are in EDT time to prevent confusion due to time zone crossing. See the BJS542 flight status page for this flight to view local times or setup timezone preferences in your user account.

Time Position Orientation Groundspeed Altitude Reporting Facility
EDT Latitude Longitude Course Direction KTS MPH feet Rate Location/Type
Fri 02:22:36 PM 43.6500 -79.6167 115° Southeast 40 46 1,100  Level Toronto Center
Fri 02:23:36 PM 43.6000 -79.6500 206° Southwest 250 288 4,400 2,430 Climbing Toronto Center
Fri 02:24:37 PM 43.5333 -79.6833 200° South 270 311 6,000 800 Climbing Toronto Center
Fri 02:25:36 PM 43.5000 -79.5833 115° Southeast 280 322 6,000  Level Toronto Center
Fri 02:26:36 PM 43.5000 -79.4667 90° East 290 334 6,000  Level Toronto Center
Fri 02:27:36 PM 43.4833 -79.3833 105° East 290 334 6,000 2,450 Level Toronto Center
Fri 02:28:36 PM 43.4667 -79.2667 101° East 300 345 10,900 3,818 Climbing Toronto Center
Fri 02:29:00 PM 43.4737 -78.8983 115° Southeast  Level Estimated
Fri 02:29:37 PM 43.4500 -79.1333 100° East 330 380 13,700  Level Toronto Center
Fri 02:30:36 PM 43.4333 -78.9833 99° East 360 414 17,300 2,672 Climbing Toronto Center
Fri 02:31:36 PM 43.4000 -78.8500 109° East 380 437 19,000 990 Climbing Toronto Center
Fri 02:32:19 PM 43.3589 -78.7817 130° Southeast 385 443 19,000  Level Cleveland Center
Fri 02:33:20 PM 43.2903 -78.6467 125° Southeast 406 467 19,000 -3,967 Level Cleveland Center
Fri 02:34:20 PM 43.2275 -78.5119 123° Southeast 423 487 11,000 -1,600 Descending Cleveland Center
Fri 02:34:50 PM 43.2056 -78.4500 116° Southeast 398 458 16,600 4,200 Climbing Cleveland Center
Fri 02:35:20 PM 43.1997 -78.3647 95° East 408 470 15,200 -2,667 Descending Cleveland Center
Fri 02:36:20 PM 43.1822 -78.2258 100° East 388 447 12,600 -2,500 Descending Cleveland Center
Fri 02:37:20 PM 43.1775 -78.0950 93° East 369 425 10,200 -2,100 Descending Cleveland Center
Fri 02:38:20 PM 43.1772 -77.9897 90° East 336 387 8,400 400 Descending Cleveland Center
Fri 02:39:20 PM 43.1789 -77.8814 89° East 299 344 11,000 -2,500 Climbing Cleveland Center
Fri 02:40:20 PM 43.2017 -77.7864 72° East 274 315 3,400 -4,350 Descending Cleveland Center
Fri 02:41:20 PM 43.1911 -77.6958 99° East 251 289 2,300 -950 Descending Cleveland Center
Fri 02:42:20 PM 43.1525 -77.6492 139° Southeast 210 242 1,500 -900 Descending Cleveland Center
Fri 02:43:20 PM 43.1178 -77.6736 207° Southwest 128 147 500 -1,000 Descending Cleveland Center
Fri 02:45:00 PM 43.1167 -77.6667 North  Level FlightAware Approximate

Login

Don't have an account? Register now (free) for customized features, flight alerts, and more!